sensor_id;sensor_type;location;lat;lon;timestamp;P1;durP1;ratioP1;P2;durP2;ratioP2
10769;SDS011;5437;50.852;4.438;2022-11-10T00:01:22;7.63;;;2.58;;
10769;SDS011;5437;50.852;4.438;2022-11-10T00:03:52;7.45;;;2.40;;
10769;SDS011;5437;50.852;4.438;2022-11-10T00:06:32;8.82;;;2.60;;
10769;SDS011;5437;50.852;4.438;2022-11-10T00:08:59;7.60;;;2.33;;
10769;SDS011;5437;50.852;4.438;2022-11-10T00:11:30;7.18;;;2.15;;
10769;SDS011;5437;50.852;4.438;2022-11-10T00:13:57;7.25;;;2.00;;
10769;SDS011;5437;50.852;4.438;2022-11-10T00:16:42;6.75;;;2.00;;
10769;SDS011;5437;50.852;4.438;2022-11-10T00:19:25;4.90;;;1.88;;
10769;SDS011;5437;50.852;4.438;2022-11-10T00:21:51;5.57;;;2.17;;
10769;SDS011;5437;50.852;4.438;2022-11-10T00:24:18;8.55;;;2.65;;
10769;SDS011;5437;50.852;4.438;2022-11-10T00:26:45;8.93;;;2.58;;
10769;SDS011;5437;50.852;4.438;2022-11-10T00:29:15;10.50;;;2.72;;
10769;SDS011;5437;50.852;4.438;2022-11-10T00:31:41;8.10;;;2.40;;
10769;SDS011;5437;50.852;4.438;2022-11-10T00:34:10;7.57;;;2.50;;
10769;SDS011;5437;50.852;4.438;2022-11-10T00:36:40;7.20;;;2.38;;
10769;SDS011;5437;50.852;4.438;2022-11-10T00:39:06;7.57;;;2.22;;
10769;SDS011;5437;50.852;4.438;2022-11-10T00:41:32;8.40;;;2.13;;
10769;SDS011;5437;50.852;4.438;2022-11-10T00:43:59;7.47;;;2.50;;
10769;SDS011;5437;50.852;4.438;2022-11-10T00:46:25;8.00;;;2.33;;
10769;SDS011;5437;50.852;4.438;2022-11-10T00:48:53;7.10;;;2.70;;
10769;SDS011;5437;50.852;4.438;2022-11-10T00:51:22;7.88;;;2.58;;
10769;SDS011;5437;50.852;4.438;2022-11-10T00:53:48;8.52;;;2.72;;
10769;SDS011;5437;50.852;4.438;2022-11-10T00:56:14;8.68;;;2.42;;
10769;SDS011;5437;50.852;4.438;2022-11-10T00:58:41;13.27;;;3.17;;
10769;SDS011;5437;50.852;4.438;2022-11-10T01:01:07;7.22;;;2.55;;
10769;SDS011;5437;50.852;4.438;2022-11-10T01:03:34;7.57;;;2.35;;
10769;SDS011;5437;50.852;4.438;2022-11-10T01:06:10;8.70;;;2.65;;
10769;SDS011;5437;50.852;4.438;2022-11-10T01:08:37;9.93;;;2.95;;
10769;SDS011;5437;50.852;4.438;2022-11-10T01:11:07;7.20;;;2.38;;
10769;SDS011;5437;50.852;4.438;2022-11-10T01:13:34;8.07;;;2.47;;
10769;SDS011;5437;50.852;4.438;2022-11-10T01:16:07;7.30;;;2.60;;
10769;SDS011;5437;50.852;4.438;2022-11-10T01:18:37;4.72;;;2.30;;
10769;SDS011;5437;50.852;4.438;2022-11-10T01:21:05;7.90;;;2.42;;
10769;SDS011;5437;50.852;4.438;2022-11-10T01:23:32;10.88;;;2.55;;
10769;SDS011;5437;50.852;4.438;2022-11-10T01:26:02;7.60;;;2.60;;
10769;SDS011;5437;50.852;4.438;2022-11-10T01:28:41;8.02;;;2.65;;
10769;SDS011;5437;50.852;4.438;2022-11-10T01:31:08;6.93;;;2.47;;
10769;SDS011;5437;50.852;4.438;2022-11-10T01:33:35;8.82;;;2.53;;
10769;SDS011;5437;50.852;4.438;2022-11-10T01:36:07;7.93;;;2.60;;
10769;SDS011;5437;50.852;4.438;2022-11-10T01:38:35;8.95;;;2.67;;
10769;SDS011;5437;50.852;4.438;2022-11-10T01:41:05;8.73;;;2.72;;
10769;SDS011;5437;50.852;4.438;2022-11-10T01:43:31;10.52;;;2.80;;
10769;SDS011;5437;50.852;4.438;2022-11-10T01:48:31;8.45;;;2.10;;
10769;SDS011;5437;50.852;4.438;2022-11-10T01:51:01;9.70;;;2.50;;
10769;SDS011;5437;50.852;4.438;2022-11-10T01:53:31;9.07;;;2.33;;
10769;SDS011;5437;50.852;4.438;2022-11-10T01:56:02;6.50;;;2.60;;
10769;SDS011;5437;50.852;4.438;2022-11-10T01:58:32;8.13;;;2.30;;
10769;SDS011;5437;50.852;4.438;2022-11-10T02:01:04;9.25;;;2.15;;
10769;SDS011;5437;50.852;4.438;2022-11-10T02:03:43;7.82;;;2.42;;
10769;SDS011;5437;50.852;4.438;2022-11-10T02:06:11;7.72;;;2.50;;
10769;SDS011;5437;50.852;4.438;2022-11-10T02:08:43;9.38;;;2.10;;
10769;SDS011;5437;50.852;4.438;2022-11-10T02:11:12;11.48;;;2.53;;
10769;SDS011;5437;50.852;4.438;2022-11-10T02:13:38;8.90;;;2.40;;
10769;SDS011;5437;50.852;4.438;2022-11-10T02:16:05;8.27;;;2.53;;
10769;SDS011;5437;50.852;4.438;2022-11-10T02:18:31;9.57;;;2.45;;
10769;SDS011;5437;50.852;4.438;2022-11-10T02:20:57;6.97;;;2.20;;
10769;SDS011;5437;50.852;4.438;2022-11-10T02:26:00;12.15;;;2.83;;
10769;SDS011;5437;50.852;4.438;2022-11-10T02:28:27;7.18;;;2.33;;
10769;SDS011;5437;50.852;4.438;2022-11-10T02:30:53;8.15;;;2.25;;
10769;SDS011;5437;50.852;4.438;2022-11-10T02:33:19;7.22;;;2.35;;
10769;SDS011;5437;50.852;4.438;2022-11-10T02:35:52;9.38;;;2.75;;
10769;SDS011;5437;50.852;4.438;2022-11-10T02:38:18;10.65;;;2.45;;
10769;SDS011;5437;50.852;4.438;2022-11-10T02:40:44;7.72;;;2.50;;
10769;SDS011;5437;50.852;4.438;2022-11-10T02:43:11;8.05;;;2.25;;
10769;SDS011;5437;50.852;4.438;2022-11-10T02:45:38;9.05;;;2.60;;
10769;SDS011;5437;50.852;4.438;2022-11-10T02:48:08;11.43;;;2.60;;
10769;SDS011;5437;50.852;4.438;2022-11-10T02:50:34;8.65;;;2.33;;
10769;SDS011;5437;50.852;4.438;2022-11-10T02:53:00;10.05;;;2.70;;
10769;SDS011;5437;50.852;4.438;2022-11-10T02:55:28;13.20;;;2.47;;
10769;SDS011;5437;50.852;4.438;2022-11-10T02:57:54;11.50;;;2.40;;
10769;SDS011;5437;50.852;4.438;2022-11-10T03:00:21;10.93;;;2.50;;
10769;SDS011;5437;50.852;4.438;2022-11-10T03:02:47;9.15;;;2.05;;
10769;SDS011;5437;50.852;4.438;2022-11-10T03:05:13;9.20;;;2.50;;
10769;SDS011;5437;50.852;4.438;2022-11-10T03:07:39;7.15;;;2.22;;
10769;SDS011;5437;50.852;4.438;2022-11-10T03:10:06;15.48;;;2.65;;
10769;SDS011;5437;50.852;4.438;2022-11-10T03:12:32;8.82;;;2.35;;
10769;SDS011;5437;50.852;4.438;2022-11-10T03:15:01;8.27;;;2.20;;
10769;SDS011;5437;50.852;4.438;2022-11-10T03:17:27;8.60;;;2.28;;
10769;SDS011;5437;50.852;4.438;2022-11-10T03:19:53;11.85;;;2.38;;
10769;SDS011;5437;50.852;4.438;2022-11-10T03:22:19;10.40;;;2.42;;
10769;SDS011;5437;50.852;4.438;2022-11-10T03:24:45;6.28;;;2.10;;
10769;SDS011;5437;50.852;4.438;2022-11-10T03:27:12;10.07;;;2.55;;
10769;SDS011;5437;50.852;4.438;2022-11-10T03:29:38;11.00;;;2.38;;
10769;SDS011;5437;50.852;4.438;2022-11-10T03:32:07;8.13;;;2.00;;
10769;SDS011;5437;50.852;4.438;2022-11-10T03:34:33;6.60;;;2.20;;
10769;SDS011;5437;50.852;4.438;2022-11-10T03:36:59;5.93;;;2.30;;
10769;SDS011;5437;50.852;4.438;2022-11-10T03:39:25;10.52;;;2.47;;
10769;SDS011;5437;50.852;4.438;2022-11-10T03:41:53;9.73;;;2.92;;
10769;SDS011;5437;50.852;4.438;2022-11-10T03:44:19;7.03;;;2.17;;
10769;SDS011;5437;50.852;4.438;2022-11-10T03:46:46;9.18;;;2.22;;
10769;SDS011;5437;50.852;4.438;2022-11-10T03:49:12;9.27;;;2.40;;
10769;SDS011;5437;50.852;4.438;2022-11-10T03:51:38;6.63;;;2.53;;
10769;SDS011;5437;50.852;4.438;2022-11-10T03:54:04;7.07;;;2.67;;
10769;SDS011;5437;50.852;4.438;2022-11-10T03:56:30;8.95;;;2.40;;
10769;SDS011;5437;50.852;4.438;2022-11-10T03:58:56;8.80;;;2.75;;
10769;SDS011;5437;50.852;4.438;2022-11-10T04:01:22;8.68;;;2.45;;
10769;SDS011;5437;50.852;4.438;2022-11-10T04:03:49;6.18;;;2.30;;
10769;SDS011;5437;50.852;4.438;2022-11-10T04:06:15;10.45;;;2.50;;
10769;SDS011;5437;50.852;4.438;2022-11-10T04:09:00;10.35;;;2.75;;
10769;SDS011;5437;50.852;4.438;2022-11-10T04:11:27;9.40;;;2.50;;
10769;SDS011;5437;50.852;4.438;2022-11-10T04:14:31;8.02;;;2.53;;
10769;SDS011;5437;50.852;4.438;2022-11-10T04:17:16;9.45;;;2.72;;
10769;SDS011;5437;50.852;4.438;2022-11-10T04:19:42;10.48;;;2.10;;
10769;SDS011;5437;50.852;4.438;2022-11-10T04:22:08;8.20;;;2.50;;
10769;SDS011;5437;50.852;4.438;2022-11-10T04:24:54;7.95;;;2.40;;
10769;SDS011;5437;50.852;4.438;2022-11-10T04:27:20;7.50;;;2.53;;
10769;SDS011;5437;50.852;4.438;2022-11-10T04:29:46;8.85;;;2.50;;
10769;SDS011;5437;50.852;4.438;2022-11-10T04:32:12;7.55;;;2.25;;
10769;SDS011;5437;50.852;4.438;2022-11-10T04:34:38;10.38;;;2.30;;
10769;SDS011;5437;50.852;4.438;2022-11-10T04:37:07;9.27;;;2.55;;
10769;SDS011;5437;50.852;4.438;2022-11-10T04:39:33;6.30;;;2.30;;
10769;SDS011;5437;50.852;4.438;2022-11-10T04:41:59;7.78;;;2.33;;
10769;SDS011;5437;50.852;4.438;2022-11-10T04:44:25;6.55;;;2.60;;
10769;SDS011;5437;50.852;4.438;2022-11-10T04:46:51;9.48;;;2.90;;
10769;SDS011;5437;50.852;4.438;2022-11-10T04:49:17;8.52;;;2.20;;
10769;SDS011;5437;50.852;4.438;2022-11-10T04:51:44;7.00;;;2.85;;
10769;SDS011;5437;50.852;4.438;2022-11-10T04:54:10;10.00;;;2.58;;
10769;SDS011;5437;50.852;4.438;2022-11-10T04:56:36;8.15;;;2.13;;
10769;SDS011;5437;50.852;4.438;2022-11-10T04:59:04;10.65;;;2.55;;
10769;SDS011;5437;50.852;4.438;2022-11-10T05:01:32;9.80;;;2.53;;
10769;SDS011;5437;50.852;4.438;2022-11-10T05:03:58;7.38;;;2.63;;
10769;SDS011;5437;50.852;4.438;2022-11-10T05:06:25;9.20;;;2.47;;
10769;SDS011;5437;50.852;4.438;2022-11-10T05:08:51;6.60;;;2.60;;
10769;SDS011;5437;50.852;4.438;2022-11-10T05:11:17;10.38;;;2.10;;
10769;SDS011;5437;50.852;4.438;2022-11-10T05:13:43;10.88;;;2.78;;
10769;SDS011;5437;50.852;4.438;2022-11-10T05:16:10;8.15;;;2.65;;
10769;SDS011;5437;50.852;4.438;2022-11-10T05:18:37;7.13;;;2.45;;
10769;SDS011;5437;50.852;4.438;2022-11-10T05:21:03;7.43;;;2.20;;
10769;SDS011;5437;50.852;4.438;2022-11-10T05:23:29;10.43;;;2.50;;
10769;SDS011;5437;50.852;4.438;2022-11-10T05:26:02;8.32;;;2.40;;
10769;SDS011;5437;50.852;4.438;2022-11-10T05:28:29;8.45;;;2.72;;
10769;SDS011;5437;50.852;4.438;2022-11-10T05:30:55;7.13;;;2.47;;
10769;SDS011;5437;50.852;4.438;2022-11-10T05:33:21;10.70;;;2.60;;
10769;SDS011;5437;50.852;4.438;2022-11-10T05:35:48;13.05;;;2.58;;
10769;SDS011;5437;50.852;4.438;2022-11-10T05:38:14;9.70;;;2.58;;
10769;SDS011;5437;50.852;4.438;2022-11-10T05:40:40;9.75;;;2.53;;
10769;SDS011;5437;50.852;4.438;2022-11-10T05:43:06;12.77;;;2.75;;
10769;SDS011;5437;50.852;4.438;2022-11-10T05:45:33;11.48;;;2.67;;
10769;SDS011;5437;50.852;4.438;2022-11-10T05:47:59;9.95;;;2.50;;
10769;SDS011;5437;50.852;4.438;2022-11-10T05:50:25;8.75;;;2.60;;
10769;SDS011;5437;50.852;4.438;2022-11-10T05:52:52;7.10;;;2.50;;
10769;SDS011;5437;50.852;4.438;2022-11-10T05:55:20;8.90;;;2.33;;
10769;SDS011;5437;50.852;4.438;2022-11-10T05:57:47;8.23;;;2.40;;
10769;SDS011;5437;50.852;4.438;2022-11-10T06:00:23;10.70;;;2.63;;
10769;SDS011;5437;50.852;4.438;2022-11-10T06:03:04;9.93;;;2.53;;
10769;SDS011;5437;50.852;4.438;2022-11-10T06:05:31;9.95;;;2.75;;
10769;SDS011;5437;50.852;4.438;2022-11-10T06:07:58;8.43;;;2.40;;
10769;SDS011;5437;50.852;4.438;2022-11-10T06:10:24;7.65;;;2.72;;
10769;SDS011;5437;50.852;4.438;2022-11-10T06:12:52;10.38;;;2.70;;
10769;SDS011;5437;50.852;4.438;2022-11-10T06:15:18;8.60;;;2.60;;
10769;SDS011;5437;50.852;4.438;2022-11-10T06:17:44;9.95;;;2.33;;
10769;SDS011;5437;50.852;4.438;2022-11-10T06:20:11;8.20;;;2.45;;
10769;SDS011;5437;50.852;4.438;2022-11-10T06:22:38;7.75;;;2.53;;
10769;SDS011;5437;50.852;4.438;2022-11-10T06:25:05;7.75;;;2.50;;
10769;SDS011;5437;50.852;4.438;2022-11-10T06:27:31;8.07;;;2.70;;
10769;SDS011;5437;50.852;4.438;2022-11-10T06:29:57;9.07;;;2.70;;
10769;SDS011;5437;50.852;4.438;2022-11-10T06:32:23;8.02;;;2.60;;
10769;SDS011;5437;50.852;4.438;2022-11-10T06:34:52;7.15;;;2.30;;
10769;SDS011;5437;50.852;4.438;2022-11-10T06:37:18;10.68;;;2.50;;
10769;SDS011;5437;50.852;4.438;2022-11-10T06:39:44;7.38;;;2.58;;
10769;SDS011;5437;50.852;4.438;2022-11-10T06:42:11;9.52;;;2.50;;
10769;SDS011;5437;50.852;4.438;2022-11-10T06:44:37;10.52;;;2.70;;
10769;SDS011;5437;50.852;4.438;2022-11-10T06:47:03;9.48;;;2.75;;
10769;SDS011;5437;50.852;4.438;2022-11-10T06:49:29;8.68;;;2.78;;
10769;SDS011;5437;50.852;4.438;2022-11-10T06:51:55;8.13;;;2.72;;
10769;SDS011;5437;50.852;4.438;2022-11-10T06:54:22;12.18;;;2.85;;
10769;SDS011;5437;50.852;4.438;2022-11-10T06:56:48;10.00;;;3.05;;
10769;SDS011;5437;50.852;4.438;2022-11-10T06:59:14;12.00;;;2.92;;
10769;SDS011;5437;50.852;4.438;2022-11-10T07:01:40;7.68;;;2.58;;
10769;SDS011;5437;50.852;4.438;2022-11-10T07:04:06;13.60;;;2.70;;
10769;SDS011;5437;50.852;4.438;2022-11-10T07:06:32;7.30;;;2.45;;
10769;SDS011;5437;50.852;4.438;2022-11-10T07:08:58;7.82;;;2.70;;
10769;SDS011;5437;50.852;4.438;2022-11-10T07:11:24;7.28;;;2.90;;
10769;SDS011;5437;50.852;4.438;2022-11-10T07:13:51;9.68;;;2.70;;
10769;SDS011;5437;50.852;4.438;2022-11-10T07:16:17;10.15;;;2.80;;
10769;SDS011;5437;50.852;4.438;2022-11-10T07:18:45;12.13;;;2.75;;
10769;SDS011;5437;50.852;4.438;2022-11-10T07:21:12;10.90;;;3.00;;
10769;SDS011;5437;50.852;4.438;2022-11-10T07:23:38;8.13;;;2.50;;
10769;SDS011;5437;50.852;4.438;2022-11-10T07:26:06;7.75;;;3.17;;
10769;SDS011;5437;50.852;4.438;2022-11-10T07:28:32;8.82;;;3.00;;
10769;SDS011;5437;50.852;4.438;2022-11-10T07:31:00;9.57;;;3.10;;
10769;SDS011;5437;50.852;4.438;2022-11-10T07:33:27;11.73;;;3.17;;
10769;SDS011;5437;50.852;4.438;2022-11-10T07:35:56;8.13;;;3.13;;
10769;SDS011;5437;50.852;4.438;2022-11-10T07:38:24;6.43;;;2.85;;
10769;SDS011;5437;50.852;4.438;2022-11-10T07:40:51;9.93;;;3.13;;
10769;SDS011;5437;50.852;4.438;2022-11-10T07:43:18;10.93;;;3.03;;
10769;SDS011;5437;50.852;4.438;2022-11-10T07:45:50;9.55;;;2.88;;
10769;SDS011;5437;50.852;4.438;2022-11-10T07:48:19;10.38;;;2.90;;
10769;SDS011;5437;50.852;4.438;2022-11-10T07:50:45;9.38;;;2.75;;
10769;SDS011;5437;50.852;4.438;2022-11-10T07:53:15;9.73;;;2.70;;
10769;SDS011;5437;50.852;4.438;2022-11-10T07:55:42;8.70;;;3.28;;
10769;SDS011;5437;50.852;4.438;2022-11-10T07:58:09;10.60;;;3.50;;
10769;SDS011;5437;50.852;4.438;2022-11-10T08:00:35;10.00;;;2.90;;
10769;SDS011;5437;50.852;4.438;2022-11-10T08:03:13;8.80;;;3.13;;
10769;SDS011;5437;50.852;4.438;2022-11-10T08:05:40;8.65;;;3.00;;
10769;SDS011;5437;50.852;4.438;2022-11-10T08:08:06;11.70;;;2.95;;
10769;SDS011;5437;50.852;4.438;2022-11-10T08:10:32;10.88;;;2.88;;
10769;SDS011;5437;50.852;4.438;2022-11-10T08:13:00;10.05;;;3.05;;
10769;SDS011;5437;50.852;4.438;2022-11-10T08:15:28;8.65;;;3.33;;
10769;SDS011;5437;50.852;4.438;2022-11-10T08:18:01;10.55;;;2.75;;
10769;SDS011;5437;50.852;4.438;2022-11-10T08:20:28;8.20;;;2.45;;
10769;SDS011;5437;50.852;4.438;2022-11-10T08:23:04;11.38;;;2.95;;
10769;SDS011;5437;50.852;4.438;2022-11-10T08:25:34;9.13;;;2.53;;
10769;SDS011;5437;50.852;4.438;2022-11-10T08:28:10;8.48;;;2.60;;
10769;SDS011;5437;50.852;4.438;2022-11-10T08:30:38;10.30;;;3.15;;
10769;SDS011;5437;50.852;4.438;2022-11-10T08:33:06;8.93;;;3.08;;
10769;SDS011;5437;50.852;4.438;2022-11-10T08:35:37;9.88;;;3.03;;
10769;SDS011;5437;50.852;4.438;2022-11-10T08:38:11;9.10;;;2.67;;
10769;SDS011;5437;50.852;4.438;2022-11-10T08:40:38;7.50;;;2.88;;
10769;SDS011;5437;50.852;4.438;2022-11-10T08:43:04;8.13;;;2.63;;
10769;SDS011;5437;50.852;4.438;2022-11-10T08:45:34;10.15;;;2.78;;
10769;SDS011;5437;50.852;4.438;2022-11-10T08:48:04;9.65;;;3.22;;
10769;SDS011;5437;50.852;4.438;2022-11-10T08:50:30;7.00;;;3.03;;
10769;SDS011;5437;50.852;4.438;2022-11-10T08:53:00;9.15;;;3.05;;
10769;SDS011;5437;50.852;4.438;2022-11-10T08:55:27;12.63;;;3.63;;
10769;SDS011;5437;50.852;4.438;2022-11-10T08:58:02;9.65;;;2.78;;
10769;SDS011;5437;50.852;4.438;2022-11-10T09:00:29;12.07;;;3.35;;
10769;SDS011;5437;50.852;4.438;2022-11-10T09:03:07;10.38;;;2.90;;
10769;SDS011;5437;50.852;4.438;2022-11-10T09:05:38;9.48;;;3.00;;
10769;SDS011;5437;50.852;4.438;2022-11-10T09:08:04;14.77;;;3.60;;
10769;SDS011;5437;50.852;4.438;2022-11-10T09:10:33;10.38;;;3.03;;
10769;SDS011;5437;50.852;4.438;2022-11-10T09:13:00;9.98;;;3.17;;
10769;SDS011;5437;50.852;4.438;2022-11-10T09:15:26;11.73;;;3.35;;
10769;SDS011;5437;50.852;4.438;2022-11-10T09:17:53;11.65;;;3.13;;
10769;SDS011;5437;50.852;4.438;2022-11-10T09:20:19;10.40;;;3.00;;
10769;SDS011;5437;50.852;4.438;2022-11-10T09:22:45;8.98;;;2.90;;
10769;SDS011;5437;50.852;4.438;2022-11-10T09:25:11;9.60;;;3.25;;
10769;SDS011;5437;50.852;4.438;2022-11-10T09:27:37;8.90;;;2.50;;
10769;SDS011;5437;50.852;4.438;2022-11-10T09:30:07;9.05;;;2.80;;
10769;SDS011;5437;50.852;4.438;2022-11-10T09:32:33;12.30;;;3.30;;
10769;SDS011;5437;50.852;4.438;2022-11-10T09:35:00;7.22;;;3.10;;
10769;SDS011;5437;50.852;4.438;2022-11-10T09:37:26;8.82;;;3.00;;
10769;SDS011;5437;50.852;4.438;2022-11-10T09:39:52;6.40;;;2.60;;
10769;SDS011;5437;50.852;4.438;2022-11-10T09:42:25;8.75;;;2.65;;
10769;SDS011;5437;50.852;4.438;2022-11-10T09:44:57;8.18;;;2.45;;
10769;SDS011;5437;50.852;4.438;2022-11-10T09:50:19;8.00;;;2.53;;
10769;SDS011;5437;50.852;4.438;2022-11-10T09:52:46;7.72;;;2.50;;
10769;SDS011;5437;50.852;4.438;2022-11-10T09:55:25;9.45;;;2.53;;
10769;SDS011;5437;50.852;4.438;2022-11-10T09:57:53;10.35;;;2.75;;
10769;SDS011;5437;50.852;4.438;2022-11-10T10:00:21;6.95;;;2.83;;
10769;SDS011;5437;50.852;4.438;2022-11-10T10:02:49;9.75;;;2.33;;
10769;SDS011;5437;50.852;4.438;2022-11-10T10:08:01;6.10;;;2.42;;
10769;SDS011;5437;50.852;4.438;2022-11-10T10:12:59;5.03;;;2.15;;
10769;SDS011;5437;50.852;4.438;2022-11-10T10:15:38;8.02;;;2.17;;
10769;SDS011;5437;50.852;4.438;2022-11-10T10:18:18;6.88;;;2.20;;
10769;SDS011;5437;50.852;4.438;2022-11-10T10:23:29;7.57;;;1.95;;
10769;SDS011;5437;50.852;4.438;2022-11-10T10:25:57;5.78;;;2.17;;
10769;SDS011;5437;50.852;4.438;2022-11-10T10:28:35;5.18;;;1.98;;
10769;SDS011;5437;50.852;4.438;2022-11-10T10:33:49;5.10;;;2.10;;
10769;SDS011;5437;50.852;4.438;2022-11-10T10:36:17;7.03;;;2.22;;
10769;SDS011;5437;50.852;4.438;2022-11-10T10:38:44;7.78;;;2.30;;
10769;SDS011;5437;50.852;4.438;2022-11-10T10:41:19;5.57;;;2.30;;
10769;SDS011;5437;50.852;4.438;2022-11-10T10:43:48;7.07;;;1.98;;
10769;SDS011;5437;50.852;4.438;2022-11-10T10:46:14;5.15;;;1.70;;
10769;SDS011;5437;50.852;4.438;2022-11-10T10:48:42;7.30;;;2.20;;
10769;SDS011;5437;50.852;4.438;2022-11-10T10:51:08;4.15;;;1.90;;
10769;SDS011;5437;50.852;4.438;2022-11-10T10:53:45;5.28;;;1.90;;
10769;SDS011;5437;50.852;4.438;2022-11-10T10:56:18;4.82;;;1.98;;
10769;SDS011;5437;50.852;4.438;2022-11-10T10:58:55;5.50;;;1.88;;
10769;SDS011;5437;50.852;4.438;2022-11-10T11:01:31;2.75;;;1.60;;
10769;SDS011;5437;50.852;4.438;2022-11-10T11:03:58;6.60;;;2.50;;
10769;SDS011;5437;50.852;4.438;2022-11-10T11:06:25;9.02;;;2.55;;
10769;SDS011;5437;50.852;4.438;2022-11-10T11:11:24;4.35;;;1.95;;
10769;SDS011;5437;50.852;4.438;2022-11-10T11:13:50;4.72;;;2.10;;
10769;SDS011;5437;50.852;4.438;2022-11-10T11:16:17;3.88;;;1.80;;
10769;SDS011;5437;50.852;4.438;2022-11-10T11:18:43;5.50;;;2.00;;
10769;SDS011;5437;50.852;4.438;2022-11-10T11:26:11;7.88;;;2.20;;
10769;SDS011;5437;50.852;4.438;2022-11-10T11:33:37;6.68;;;1.88;;
10769;SDS011;5437;50.852;4.438;2022-11-10T11:36:30;5.93;;;2.17;;
10769;SDS011;5437;50.852;4.438;2022-11-10T11:49:57;6.70;;;2.33;;
10769;SDS011;5437;50.852;4.438;2022-11-10T11:57:45;5.85;;;2.20;;
10769;SDS011;5437;50.852;4.438;2022-11-10T12:00:14;6.35;;;2.40;;
10769;SDS011;5437;50.852;4.438;2022-11-10T12:05:29;6.70;;;2.10;;
10769;SDS011;5437;50.852;4.438;2022-11-10T12:10:27;4.72;;;1.80;;
10769;SDS011;5437;50.852;4.438;2022-11-10T12:15:47;4.97;;;1.98;;
10769;SDS011;5437;50.852;4.438;2022-11-10T12:23:14;4.47;;;1.83;;
10769;SDS011;5437;50.852;4.438;2022-11-10T12:28:29;3.63;;;2.00;;
10769;SDS011;5437;50.852;4.438;2022-11-10T12:30:57;8.32;;;2.10;;
10769;SDS011;5437;50.852;4.438;2022-11-10T12:35:57;5.70;;;1.83;;
10769;SDS011;5437;50.852;4.438;2022-11-10T12:38:46;3.88;;;1.80;;
10769;SDS011;5437;50.852;4.438;2022-11-10T12:41:13;4.75;;;1.98;;
10769;SDS011;5437;50.852;4.438;2022-11-10T12:43:41;4.82;;;2.00;;
10769;SDS011;5437;50.852;4.438;2022-11-10T12:46:10;5.03;;;1.90;;
10769;SDS011;5437;50.852;4.438;2022-11-10T12:49:23;4.72;;;2.10;;
10769;SDS011;5437;50.852;4.438;2022-11-10T12:53:53;6.07;;;2.25;;
10769;SDS011;5437;50.852;4.438;2022-11-10T12:56:21;2.80;;;2.15;;
10769;SDS011;5437;50.852;4.438;2022-11-10T12:58:55;5.03;;;1.90;;
10769;SDS011;5437;50.852;4.438;2022-11-10T13:01:34;7.18;;;2.20;;
10769;SDS011;5437;50.852;4.438;2022-11-10T13:04:07;5.47;;;2.25;;
10769;SDS011;5437;50.852;4.438;2022-11-10T13:06:33;6.55;;;2.00;;
10769;SDS011;5437;50.852;4.438;2022-11-10T13:09:02;4.78;;;1.92;;
10769;SDS011;5437;50.852;4.438;2022-11-10T13:11:32;3.35;;;2.05;;
10769;SDS011;5437;50.852;4.438;2022-11-10T13:14:21;5.65;;;1.95;;
10769;SDS011;5437;50.852;4.438;2022-11-10T13:16:52;4.57;;;1.70;;
10769;SDS011;5437;50.852;4.438;2022-11-10T13:19:45;5.13;;;1.60;;
10769;SDS011;5437;50.852;4.438;2022-11-10T13:22:10;3.65;;;1.23;;
10769;SDS011;5437;50.852;4.438;2022-11-10T13:24:39;4.68;;;1.50;;
10769;SDS011;5437;50.852;4.438;2022-11-10T13:29:58;3.25;;;1.13;;
10769;SDS011;5437;50.852;4.438;2022-11-10T13:32:34;4.45;;;1.25;;
10769;SDS011;5437;50.852;4.438;2022-11-10T13:35:50;2.90;;;1.02;;
10769;SDS011;5437;50.852;4.438;2022-11-10T13:37:46;3.15;;;1.27;;
10769;SDS011;5437;50.852;4.438;2022-11-10T13:42:43;3.53;;;1.33;;
10769;SDS011;5437;50.852;4.438;2022-11-10T13:45:26;4.70;;;1.15;;
10769;SDS011;5437;50.852;4.438;2022-11-10T13:47:54;2.97;;;1.20;;
10769;SDS011;5437;50.852;4.438;2022-11-10T13:50:25;2.67;;;1.25;;
10769;SDS011;5437;50.852;4.438;2022-11-10T13:55:36;2.63;;;1.30;;
10769;SDS011;5437;50.852;4.438;2022-11-10T13:58:06;3.17;;;1.30;;
10769;SDS011;5437;50.852;4.438;2022-11-10T14:00:34;2.88;;;1.33;;
10769;SDS011;5437;50.852;4.438;2022-11-10T14:03:01;4.47;;;1.40;;
10769;SDS011;5437;50.852;4.438;2022-11-10T14:08:00;2.90;;;1.38;;
10769;SDS011;5437;50.852;4.438;2022-11-10T14:10:33;4.65;;;1.70;;
10769;SDS011;5437;50.852;4.438;2022-11-10T14:13:03;4.20;;;1.67;;
10769;SDS011;5437;50.852;4.438;2022-11-10T14:15:36;4.38;;;1.70;;
10769;SDS011;5437;50.852;4.438;2022-11-10T14:18:10;4.85;;;1.90;;
10769;SDS011;5437;50.852;4.438;2022-11-10T14:20:42;4.95;;;2.13;;
10769;SDS011;5437;50.852;4.438;2022-11-10T14:23:29;5.78;;;2.03;;
10769;SDS011;5437;50.852;4.438;2022-11-10T14:25:58;3.53;;;1.70;;
10769;SDS011;5437;50.852;4.438;2022-11-10T14:28:31;3.90;;;2.10;;
10769;SDS011;5437;50.852;4.438;2022-11-10T14:30:58;3.85;;;1.90;;
10769;SDS011;5437;50.852;4.438;2022-11-10T14:33:25;4.75;;;1.92;;
10769;SDS011;5437;50.852;4.438;2022-11-10T14:36:12;3.38;;;1.77;;
10769;SDS011;5437;50.852;4.438;2022-11-10T14:38:41;6.03;;;1.70;;
10769;SDS011;5437;50.852;4.438;2022-11-10T14:41:12;5.97;;;2.05;;
10769;SDS011;5437;50.852;4.438;2022-11-10T14:43:39;4.50;;;1.65;;
10769;SDS011;5437;50.852;4.438;2022-11-10T14:46:05;3.30;;;1.70;;
10769;SDS011;5437;50.852;4.438;2022-11-10T14:48:33;3.95;;;1.65;;
10769;SDS011;5437;50.852;4.438;2022-11-10T14:51:33;6.07;;;1.63;;
10769;SDS011;5437;50.852;4.438;2022-11-10T14:53:52;4.40;;;1.52;;
10769;SDS011;5437;50.852;4.438;2022-11-10T14:56:23;5.45;;;1.98;;
10769;SDS011;5437;50.852;4.438;2022-11-10T14:58:49;4.80;;;1.73;;
10769;SDS011;5437;50.852;4.438;2022-11-10T15:01:26;4.25;;;1.70;;
10769;SDS011;5437;50.852;4.438;2022-11-10T15:03:54;4.82;;;1.63;;
10769;SDS011;5437;50.852;4.438;2022-11-10T15:06:21;3.50;;;1.60;;
10769;SDS011;5437;50.852;4.438;2022-11-10T15:08:47;3.33;;;1.33;;
10769;SDS011;5437;50.852;4.438;2022-11-10T15:13:58;4.07;;;1.83;;
10769;SDS011;5437;50.852;4.438;2022-11-10T15:16:33;3.55;;;1.50;;
10769;SDS011;5437;50.852;4.438;2022-11-10T15:21:45;4.13;;;1.63;;
10769;SDS011;5437;50.852;4.438;2022-11-10T15:24:11;5.75;;;1.70;;
10769;SDS011;5437;50.852;4.438;2022-11-10T15:26:37;5.57;;;2.00;;
10769;SDS011;5437;50.852;4.438;2022-11-10T15:29:04;6.38;;;1.88;;
10769;SDS011;5437;50.852;4.438;2022-11-10T15:31:31;6.85;;;2.40;;
10769;SDS011;5437;50.852;4.438;2022-11-10T15:34:01;4.82;;;1.90;;
10769;SDS011;5437;50.852;4.438;2022-11-10T15:36:35;8.25;;;2.75;;
10769;SDS011;5437;50.852;4.438;2022-11-10T15:41:55;4.10;;;1.98;;
10769;SDS011;5437;50.852;4.438;2022-11-10T15:44:23;5.70;;;2.30;;
10769;SDS011;5437;50.852;4.438;2022-11-10T15:46:50;5.43;;;2.13;;
10769;SDS011;5437;50.852;4.438;2022-11-10T15:51:42;3.70;;;2.08;;
10769;SDS011;5437;50.852;4.438;2022-11-10T15:54:11;6.43;;;2.55;;
10769;SDS011;5437;50.852;4.438;2022-11-10T15:56:37;4.80;;;2.30;;
10769;SDS011;5437;50.852;4.438;2022-11-10T15:59:03;4.60;;;2.30;;
10769;SDS011;5437;50.852;4.438;2022-11-10T16:01:32;6.82;;;2.38;;
10769;SDS011;5437;50.852;4.438;2022-11-10T16:03:59;7.53;;;2.40;;
10769;SDS011;5437;50.852;4.438;2022-11-10T16:06:47;5.78;;;2.50;;
10769;SDS011;5437;50.852;4.438;2022-11-10T16:09:13;6.70;;;2.45;;
10769;SDS011;5437;50.852;4.438;2022-11-10T16:11:41;4.55;;;2.80;;
10769;SDS011;5437;50.852;4.438;2022-11-10T16:14:09;6.35;;;2.40;;
10769;SDS011;5437;50.852;4.438;2022-11-10T16:16:38;5.53;;;2.38;;
10769;SDS011;5437;50.852;4.438;2022-11-10T16:19:04;4.88;;;2.45;;
10769;SDS011;5437;50.852;4.438;2022-11-10T16:21:30;5.55;;;2.33;;
10769;SDS011;5437;50.852;4.438;2022-11-10T16:23:56;5.45;;;2.30;;
10769;SDS011;5437;50.852;4.438;2022-11-10T16:26:25;5.55;;;2.40;;
10769;SDS011;5437;50.852;4.438;2022-11-10T16:28:52;6.28;;;2.50;;
10769;SDS011;5437;50.852;4.438;2022-11-10T16:31:18;4.75;;;2.40;;
10769;SDS011;5437;50.852;4.438;2022-11-10T16:33:45;3.90;;;2.30;;
10769;SDS011;5437;50.852;4.438;2022-11-10T16:36:22;6.13;;;2.47;;
10769;SDS011;5437;50.852;4.438;2022-11-10T16:38:49;7.13;;;2.60;;